Time;durP1;ratioP1;P1;durP2;ratioP2;P2;SDS_P1;SDS_P2;PMS_P1;PMS_P2;Temp;Humidity;BMP_temperature;BMP_pressure;BME280_temperature;BME280_humidity;BME280_pressure;Samples;Min_cycle;Max_cycle;Signal;HPM_P1;HPM_P2
2022/09/01 00:00:48;;;;;;;3.30;1.30;;;16.90;99.90;;;;;;5067876;28;25068;-75
2022/09/01 00:03:15;;;;;;;2.35;1.27;;;16.90;99.90;;;;;;5064730;28;25114;-73
2022/09/01 00:05:41;;;;;;;1.27;1.10;;;16.80;99.90;;;;;;5056240;28;25073;-76
2022/09/01 00:08:07;;;;;;;1.05;1.05;;;16.80;99.90;;;;;;5052312;28;25053;-74
2022/09/01 00:10:32;;;;;;;1.02;1.00;;;16.80;99.90;;;;;;5069415;28;25057;-75
2022/09/01 00:12:58;;;;;;;1.15;1.05;;;16.80;99.90;;;;;;5059296;28;25072;-76
2022/09/01 00:15:24;;;;;;;3.85;1.38;;;16.80;99.90;;;;;;5060033;28;25105;-74
2022/09/01 00:17:50;;;;;;;1.67;0.90;;;16.70;99.90;;;;;;5063019;28;25137;-75
2022/09/01 00:20:15;;;;;;;3.28;1.17;;;16.70;99.90;;;;;;5062068;28;25075;-75
2022/09/01 00:22:41;;;;;;;3.35;1.15;;;16.70;99.90;;;;;;5069017;28;25090;-76
2022/09/01 00:25:08;;;;;;;1.38;1.13;;;16.70;99.90;;;;;;5073357;28;25056;-74
2022/09/01 00:27:33;;;;;;;3.45;1.20;;;16.60;99.90;;;;;;5057513;28;25141;-74
2022/09/01 00:29:59;;;;;;;1.30;1.17;;;16.70;99.90;;;;;;5066708;28;25067;-78
2022/09/01 00:32:26;;;;;;;1.33;1.10;;;16.60;99.90;;;;;;5065004;28;25064;-76
2022/09/01 00:34:51;;;;;;;2.45;1.10;;;16.50;99.90;;;;;;5068415;28;25076;-75
2022/09/01 00:37:17;;;;;;;1.73;1.00;;;16.40;99.90;;;;;;5072831;28;25139;-74
2022/09/01 00:39:42;;;;;;;2.03;1.30;;;16.40;99.90;;;;;;5067715;28;25102;-74
2022/09/01 00:42:08;;;;;;;3.58;1.38;;;16.40;99.90;;;;;;5055266;28;25139;-74
2022/09/01 00:44:35;;;;;;;1.33;1.05;;;16.40;99.90;;;;;;5064480;28;25073;-76
2022/09/01 00:47:01;;;;;;;1.50;1.40;;;16.40;99.90;;;;;;5079737;28;25091;-77
2022/09/01 00:49:33;;;;;;;4.45;1.45;;;16.40;99.90;;;;;;5070739;28;25068;-74
2022/09/01 00:52:24;;;;;;;1.35;1.13;;;16.40;99.90;;;;;;5070058;28;25077;-76
2022/09/01 00:54:57;;;;;;;5.87;1.40;;;16.30;99.90;;;;;;5072865;28;25078;-74
2022/09/01 00:57:23;;;;;;;1.20;1.10;;;16.40;99.90;;;;;;5068247;28;25104;-75
2022/09/01 00:59:59;;;;;;;1.42;1.15;;;16.40;99.90;;;;;;5075453;28;25131;-74
2022/09/01 01:02:25;;;;;;;2.67;1.60;;;16.30;99.90;;;;;;5064817;28;25153;-75
2022/09/01 01:04:51;;;;;;;1.38;1.27;;;16.40;99.90;;;;;;5069418;28;25140;-75
2022/09/01 01:07:21;;;;;;;3.70;1.40;;;16.40;99.90;;;;;;5065696;28;25101;-75
2022/09/01 01:09:48;;;;;;;2.42;1.50;;;16.30;99.90;;;;;;5070601;28;25066;-75
2022/09/01 01:12:16;;;;;;;3.78;1.60;;;16.30;99.90;;;;;;5064414;28;25076;-76
2022/09/01 01:14:48;;;;;;;3.03;1.50;;;16.20;99.90;;;;;;5063497;28;25148;-74
2022/09/01 01:17:21;;;;;;;4.43;1.40;;;16.10;99.90;;;;;;5066503;28;25102;-74
2022/09/01 01:23:04;;;;;;;1.42;1.10;;;16.00;99.90;;;;;;5066086;28;25128;-74
2022/09/01 01:25:35;;;;;;;5.13;1.48;;;16.00;99.90;;;;;;5069387;28;25068;-75
2022/09/01 01:28:12;;;;;;;2.40;1.50;;;16.00;99.90;;;;;;5064002;28;25083;-74
2022/09/01 01:30:42;;;;;;;4.82;1.63;;;16.10;99.90;;;;;;5065197;28;25042;-74
2022/09/01 01:33:07;;;;;;;1.88;1.25;;;16.10;99.90;;;;;;5063528;28;25067;-75
2022/09/01 01:35:34;;;;;;;1.98;1.60;;;16.10;99.90;;;;;;5076085;28;25068;-74
2022/09/01 01:38:04;;;;;;;4.65;1.42;;;16.00;99.90;;;;;;5074596;28;25077;-77
2022/09/01 01:40:30;;;;;;;1.50;1.27;;;16.10;99.90;;;;;;5081634;28;25106;-74
2022/09/01 01:42:56;;;;;;;3.25;1.42;;;16.00;99.90;;;;;;5079509;28;25062;-77
2022/09/01 01:45:23;;;;;;;1.90;1.60;;;15.90;99.90;;;;;;5080181;28;25063;-77
2022/09/01 01:47:55;;;;;;;3.30;1.58;;;15.90;99.90;;;;;;5076320;28;25076;-75
2022/09/01 01:50:32;;;;;;;2.65;1.67;;;15.90;99.90;;;;;;5085625;28;25060;-75
2022/09/01 01:52:58;;;;;;;2.08;1.88;;;15.80;99.90;;;;;;5079598;28;25066;-78
2022/09/01 01:55:27;;;;;;;2.42;1.98;;;15.80;99.90;;;;;;5067794;28;25147;-76
2022/09/01 01:57:53;;;;;;;4.15;1.95;;;15.70;99.90;;;;;;5065002;28;25060;-75
2022/09/01 02:00:23;;;;;;;2.10;1.60;;;15.70;99.90;;;;;;5066263;28;25116;-74
2022/09/01 02:02:52;;;;;;;4.80;1.60;;;15.60;99.90;;;;;;5065015;28;25076;-74
2022/09/01 02:05:27;;;;;;;1.40;1.30;;;15.60;99.90;;;;;;5064154;28;25055;-75
2022/09/01 02:07:58;;;;;;;2.67;1.55;;;15.70;99.90;;;;;;5060610;28;25127;-74
2022/09/01 02:10:30;;;;;;;2.65;1.67;;;15.70;99.90;;;;;;5053355;28;25077;-76
2022/09/01 02:13:03;;;;;;;1.67;1.58;;;15.70;99.90;;;;;;5054760;28;25161;-74
2022/09/01 02:15:44;;;;;;;2.13;1.52;;;15.60;99.90;;;;;;5059024;28;25095;-74
2022/09/01 02:18:34;;;;;;;1.88;1.67;;;15.50;99.90;;;;;;5052950;28;25153;-77
2022/09/01 02:21:07;;;;;;;5.20;1.85;;;15.50;99.90;;;;;;5053247;28;25044;-73
2022/09/01 02:23:32;;;;;;;2.75;1.60;;;15.40;99.90;;;;;;5063409;28;25082;-74
2022/09/01 02:26:01;;;;;;;2.00;1.80;;;15.50;99.90;;;;;;5054577;28;25064;-76
2022/09/01 02:28:30;;;;;;;8.18;1.85;;;15.40;99.90;;;;;;5056613;28;25093;-74
2022/09/01 02:30:58;;;;;;;3.45;1.75;;;15.50;99.90;;;;;;5063705;28;25061;-74
2022/09/01 02:33:26;;;;;;;5.03;1.70;;;15.50;99.90;;;;;;5062287;28;25046;-73
2022/09/01 02:35:55;;;;;;;3.05;1.80;;;15.50;99.90;;;;;;5058105;28;25141;-75
2022/09/01 02:38:22;;;;;;;2.00;1.77;;;15.40;99.90;;;;;;5054353;28;25136;-77
2022/09/01 02:40:48;;;;;;;10.50;1.75;;;15.40;99.90;;;;;;5061497;28;25057;-75
2022/09/01 02:43:19;;;;;;;2.25;1.75;;;15.40;99.90;;;;;;5059986;28;25125;-75
2022/09/01 02:45:56;;;;;;;1.83;1.50;;;15.40;99.90;;;;;;5060299;28;25093;-75
2022/09/01 02:48:25;;;;;;;4.55;1.90;;;15.50;99.90;;;;;;5065894;28;25127;-74
2022/09/01 02:50:51;;;;;;;2.00;1.80;;;15.40;99.90;;;;;;5065906;28;25128;-75
2022/09/01 02:53:16;;;;;;;3.83;1.92;;;15.40;99.90;;;;;;5061309;28;25083;-74
2022/09/01 02:55:42;;;;;;;2.35;1.77;;;15.40;99.90;;;;;;5057362;28;25106;-76
2022/09/01 02:58:17;;;;;;;4.38;1.77;;;15.30;99.90;;;;;;5047152;28;25151;-75
2022/09/01 03:00:43;;;;;;;4.65;1.63;;;15.30;99.90;;;;;;5055058;28;25072;-74
2022/09/01 03:03:16;;;;;;;2.53;1.67;;;15.30;99.90;;;;;;5046139;28;25129;-74
2022/09/01 03:05:42;;;;;;;3.03;1.90;;;15.30;99.90;;;;;;5056881;28;24790;-73
2022/09/01 03:08:11;;;;;;;3.53;2.00;;;15.20;99.90;;;;;;5050724;28;25069;-74
2022/09/01 03:10:40;;;;;;;3.72;1.67;;;15.30;99.90;;;;;;5057688;28;25065;-75
2022/09/01 03:13:09;;;;;;;5.30;2.38;;;15.20;99.90;;;;;;5058752;28;25095;-73
2022/09/01 03:15:36;;;;;;;2.88;2.00;;;15.20;99.90;;;;;;5058390;28;25135;-73
2022/09/01 03:18:03;;;;;;;3.70;1.80;;;15.30;99.90;;;;;;5063562;28;25079;-74
2022/09/01 03:20:32;;;;;;;5.15;2.20;;;15.30;99.90;;;;;;5059163;28;25107;-75
2022/09/01 03:23:03;;;;;;;2.97;1.83;;;15.20;99.90;;;;;;5063473;28;25113;-77
2022/09/01 03:25:28;;;;;;;2.50;1.70;;;15.20;99.90;;;;;;5063498;28;25079;-75
2022/09/01 03:28:00;;;;;;;2.45;2.10;;;15.30;99.90;;;;;;5052348;28;25056;-74
2022/09/01 03:30:30;;;;;;;2.90;1.90;;;15.30;99.90;;;;;;5064890;28;25059;-74
2022/09/01 03:32:57;;;;;;;5.55;2.28;;;15.20;99.90;;;;;;5049465;28;25071;-77
2022/09/01 03:35:24;;;;;;;2.35;1.90;;;15.10;99.90;;;;;;5052479;28;25100;-76
2022/09/01 03:37:49;;;;;;;4.53;1.90;;;15.10;99.90;;;;;;5054012;28;25049;-75
2022/09/01 03:40:17;;;;;;;2.55;2.13;;;15.20;99.90;;;;;;5053643;28;25076;-74
2022/09/01 03:42:43;;;;;;;4.78;2.00;;;15.10;99.90;;;;;;5062360;28;25091;-74
2022/09/01 03:45:11;;;;;;;6.90;2.15;;;15.20;99.90;;;;;;5063280;28;25170;-74
2022/09/01 03:47:42;;;;;;;4.97;1.95;;;15.30;99.90;;;;;;5054310;28;25130;-75
2022/09/01 03:50:20;;;;;;;2.53;1.80;;;15.20;99.90;;;;;;5053777;28;25064;-72
2022/09/01 03:52:52;;;;;;;5.68;2.25;;;15.20;99.90;;;;;;5058403;28;25118;-74
2022/09/01 03:55:23;;;;;;;4.55;2.20;;;15.20;99.90;;;;;;5045771;28;25122;-75
2022/09/01 03:57:49;;;;;;;3.33;2.03;;;15.30;99.90;;;;;;5056732;28;25073;-75
2022/09/01 04:00:19;;;;;;;3.35;1.67;;;15.20;99.90;;;;;;5064817;28;25066;-74
2022/09/01 04:02:47;;;;;;;1.63;1.52;;;15.20;99.90;;;;;;5062235;28;25059;-75
2022/09/01 04:05:13;;;;;;;4.45;1.77;;;15.20;99.90;;;;;;5062276;28;25102;-75
2022/09/01 04:07:38;;;;;;;2.95;1.85;;;15.20;99.90;;;;;;5063878;28;25153;-75
2022/09/01 04:10:04;;;;;;;4.55;2.10;;;15.10;99.90;;;;;;5058308;28;25071;-77
2022/09/01 04:12:30;;;;;;;5.85;2.10;;;15.10;99.90;;;;;;5063242;28;25130;-74
2022/09/01 04:14:56;;;;;;;4.30;1.85;;;15.10;99.90;;;;;;5060639;28;25047;-73
2022/09/01 04:20:08;;;;;;;2.25;2.03;;;15.30;99.90;;;;;;5061817;28;25078;-77
2022/09/01 04:22:37;;;;;;;2.45;1.52;;;15.20;99.90;;;;;;5065467;28;25093;-75
2022/09/01 04:25:04;;;;;;;1.90;1.80;;;15.10;99.90;;;;;;5061635;28;25063;-75
2022/09/01 04:27:29;;;;;;;3.83;1.77;;;15.00;99.90;;;;;;5056958;28;25084;-74
2022/09/01 04:29:55;;;;;;;6.72;2.17;;;15.20;99.90;;;;;;5068029;28;25097;-75
2022/09/01 04:32:23;;;;;;;2.97;1.77;;;15.10;99.90;;;;;;5054863;28;25118;-72
2022/09/01 04:34:49;;;;;;;4.07;2.35;;;15.00;99.90;;;;;;5058088;28;25078;-72
2022/09/01 04:37:19;;;;;;;3.17;2.47;;;15.00;99.90;;;;;;5063499;28;25098;-72
2022/09/01 04:39:51;;;;;;;5.10;2.03;;;14.90;99.90;;;;;;5070382;28;25040;-73
2022/09/01 04:42:17;;;;;;;5.85;2.05;;;14.90;99.90;;;;;;5054645;28;25074;-71
2022/09/01 04:44:45;;;;;;;3.25;1.80;;;14.90;99.90;;;;;;5050796;28;25058;-70
2022/09/01 04:47:16;;;;;;;3.42;2.03;;;14.90;99.90;;;;;;5058797;28;25082;-72
2022/09/01 04:49:44;;;;;;;3.00;1.67;;;14.90;99.90;;;;;;5059263;28;25054;-71
2022/09/01 04:52:11;;;;;;;4.95;2.10;;;14.80;99.90;;;;;;5066956;28;25100;-72
2022/09/01 04:54:37;;;;;;;2.88;2.25;;;14.90;99.90;;;;;;5062590;28;25097;-72
2022/09/01 04:57:05;;;;;;;3.20;2.13;;;14.90;99.90;;;;;;5057145;28;25098;-73
2022/09/01 04:59:32;;;;;;;4.82;1.90;;;14.90;99.90;;;;;;5065211;28;25078;-74
2022/09/01 05:01:59;;;;;;;2.75;2.13;;;14.90;99.90;;;;;;5057537;28;25057;-74
2022/09/01 05:04:27;;;;;;;4.32;1.98;;;14.90;99.90;;;;;;5063210;28;25089;-74
2022/09/01 05:07:00;;;;;;;3.25;2.47;;;14.90;99.90;;;;;;5062302;28;25162;-72
2022/09/01 05:09:35;;;;;;;2.70;1.88;;;15.00;99.90;;;;;;5057533;28;25054;-73
2022/09/01 05:12:09;;;;;;;3.03;1.90;;;15.10;99.90;;;;;;5052919;28;25063;-75
2022/09/01 05:14:47;;;;;;;3.30;2.05;;;15.10;99.90;;;;;;5060297;28;25077;-73
2022/09/01 05:17:13;;;;;;;2.85;1.90;;;15.10;99.90;;;;;;5064847;28;25098;-72
2022/09/01 05:19:41;;;;;;;4.03;2.08;;;15.20;99.90;;;;;;5057767;28;25132;-72
2022/09/01 05:22:09;;;;;;;5.35;2.40;;;15.20;99.90;;;;;;5055404;28;25067;-72
2022/09/01 05:24:35;;;;;;;4.25;1.90;;;15.10;99.90;;;;;;5052919;28;25049;-73
2022/09/01 05:27:03;;;;;;;7.40;2.22;;;15.20;99.90;;;;;;5061309;28;25070;-74
2022/09/01 05:29:29;;;;;;;3.40;1.90;;;15.10;99.90;;;;;;5057599;28;25058;-74
2022/09/01 05:31:55;;;;;;;5.28;2.65;;;15.20;99.90;;;;;;5053501;28;25153;-73
2022/09/01 05:34:25;;;;;;;4.40;2.35;;;15.10;99.90;;;;;;5056375;28;25098;-72
2022/09/01 05:36:52;;;;;;;3.38;2.45;;;15.00;99.90;;;;;;5058839;28;25080;-72
2022/09/01 05:39:18;;;;;;;5.93;2.30;;;15.00;99.90;;;;;;5054220;28;25098;-73
2022/09/01 05:41:44;;;;;;;7.38;2.03;;;15.00;99.90;;;;;;5059561;28;25098;-73
2022/09/01 05:44:12;;;;;;;4.88;2.28;;;15.00;99.90;;;;;;5065463;28;25080;-74
2022/09/01 05:46:38;;;;;;;5.60;2.33;;;15.10;99.90;;;;;;5069439;28;25074;-74
2022/09/01 05:49:06;;;;;;;8.18;3.13;;;15.10;99.90;;;;;;5052900;28;25069;-73
2022/09/01 05:51:36;;;;;;;3.97;2.20;;;15.10;99.90;;;;;;5058620;28;25045;-73
2022/09/01 05:54:02;;;;;;;4.30;1.88;;;15.10;99.90;;;;;;5059095;28;25129;-72
2022/09/01 05:56:30;;;;;;;11.90;2.17;;;15.20;99.90;;;;;;5053383;28;25080;-73
2022/09/01 05:58:56;;;;;;;4.68;2.50;;;15.30;99.90;;;;;;5056326;28;25147;-74
2022/09/01 06:01:25;;;;;;;2.58;2.00;;;15.30;99.90;;;;;;5059258;28;25056;-72
2022/09/01 06:03:56;;;;;;;5.05;1.95;;;15.20;99.90;;;;;;5053790;28;25111;-71
2022/09/01 06:06:23;;;;;;;5.75;2.45;;;15.10;99.90;;;;;;5060685;28;25109;-71
2022/09/01 06:08:50;;;;;;;3.78;1.90;;;15.20;99.90;;;;;;5065649;28;25085;-77
2022/09/01 06:11:17;;;;;;;4.50;2.08;;;15.20;99.90;;;;;;5065731;28;25064;-73
2022/09/01 06:13:46;;;;;;;4.10;2.42;;;15.20;99.90;;;;;;5059513;28;25098;-74
2022/09/01 06:16:18;;;;;;;5.20;2.22;;;15.30;99.90;;;;;;5067115;28;25071;-73
2022/09/01 06:18:44;;;;;;;3.33;1.92;;;15.40;99.90;;;;;;5062346;28;25079;-73
2022/09/01 06:21:13;;;;;;;7.63;2.28;;;15.60;99.90;;;;;;5062676;28;25073;-73
2022/09/01 06:23:43;;;;;;;2.88;1.95;;;15.60;99.90;;;;;;5066948;28;25139;-73
2022/09/01 06:26:20;;;;;;;2.28;1.70;;;15.60;99.90;;;;;;5065179;28;25137;-73
2022/09/01 06:28:46;;;;;;;3.67;1.88;;;15.60;99.90;;;;;;5063164;28;25053;-74
2022/09/01 06:31:13;;;;;;;3.78;2.17;;;15.70;99.90;;;;;;5053756;28;25110;-74
2022/09/01 06:33:39;;;;;;;6.53;1.98;;;15.80;99.90;;;;;;5059505;28;25091;-73
2022/09/01 06:36:08;;;;;;;2.03;1.83;;;15.80;99.90;;;;;;5064715;28;25186;-74
2022/09/01 06:38:34;;;;;;;3.70;1.88;;;15.80;99.90;;;;;;5060213;28;25127;-74
2022/09/01 06:41:11;;;;;;;6.13;2.20;;;15.90;99.90;;;;;;5062960;28;25150;-72
2022/09/01 06:43:40;;;;;;;3.92;2.17;;;16.00;99.90;;;;;;5064335;28;25052;-76
2022/09/01 06:46:08;;;;;;;3.88;2.53;;;16.10;99.90;;;;;;5054936;28;25048;-74
2022/09/01 06:48:35;;;;;;;4.65;2.05;;;16.10;99.90;;;;;;5061046;28;25092;-73
2022/09/01 06:51:02;;;;;;;4.22;2.47;;;16.10;99.90;;;;;;5049921;28;25090;-72
2022/09/01 06:53:30;;;;;;;5.00;2.38;;;16.20;99.90;;;;;;5053646;28;25053;-72
2022/09/01 06:55:57;;;;;;;6.30;2.20;;;16.30;99.90;;;;;;5057786;28;25066;-73
2022/09/01 06:58:23;;;;;;;6.80;1.90;;;16.40;99.90;;;;;;5065726;28;25055;-73
2022/09/01 07:00:49;;;;;;;3.90;2.10;;;16.40;99.90;;;;;;5071466;28;25073;-75
2022/09/01 07:03:15;;;;;;;4.25;1.98;;;16.40;99.90;;;;;;5092293;28;25073;-72
2022/09/01 07:05:42;;;;;;;6.03;2.38;;;16.40;99.90;;;;;;5081372;28;25066;-74
2022/09/01 07:08:12;;;;;;;8.43;2.08;;;16.50;99.90;;;;;;5095973;28;25065;-75
2022/09/01 07:10:44;;;;;;;4.75;2.17;;;16.60;99.90;;;;;;5089388;28;25054;-73
2022/09/01 07:13:17;;;;;;;3.90;2.42;;;16.70;99.90;;;;;;5068470;28;25109;-73
2022/09/01 07:15:43;;;;;;;4.75;2.08;;;16.70;99.90;;;;;;5064349;28;25060;-73
2022/09/01 07:18:11;;;;;;;4.80;2.17;;;16.90;99.90;;;;;;5058740;28;25074;-73
2022/09/01 07:20:40;;;;;;;6.50;2.08;;;17.10;99.90;;;;;;5061041;28;25075;-73
2022/09/01 07:23:06;;;;;;;5.20;1.85;;;17.20;99.90;;;;;;5063783;28;25135;-74
2022/09/01 07:25:33;;;;;;;3.78;1.80;;;17.30;99.90;;;;;;5073484;28;25083;-73
2022/09/01 07:28:00;;;;;;;4.78;2.22;;;17.40;99.90;;;;;;5057568;28;25054;-74
2022/09/01 07:30:25;;;;;;;2.17;1.35;;;17.50;99.90;;;;;;5066020;28;25081;-73
2022/09/01 07:32:51;;;;;;;6.18;2.15;;;17.50;99.90;;;;;;5054911;28;25087;-76
2022/09/01 07:35:21;;;;;;;9.27;2.30;;;17.60;99.90;;;;;;5054074;28;25066;-74
2022/09/01 07:37:47;;;;;;;3.75;2.05;;;17.60;99.90;;;;;;5051539;28;25060;-73
2022/09/01 07:40:17;;;;;;;5.88;2.05;;;17.70;99.90;;;;;;5060675;28;25056;-73
2022/09/01 07:42:46;;;;;;;5.45;2.22;;;17.70;99.90;;;;;;5057770;28;25069;-73
2022/09/01 07:45:14;;;;;;;3.60;2.30;;;17.80;99.90;;;;;;5046920;28;25052;-75
2022/09/01 07:47:39;;;;;;;5.25;2.20;;;17.90;99.90;;;;;;5058018;28;25085;-71
2022/09/01 07:50:07;;;;;;;7.15;1.95;;;17.80;99.90;;;;;;5061084;28;25079;-73
2022/09/01 07:52:41;;;;;;;3.90;2.22;;;17.90;99.90;;;;;;5051952;28;25137;-74
2022/09/01 07:55:10;;;;;;;5.07;2.17;;;18.10;99.90;;;;;;5074199;28;25115;-72
2022/09/01 07:57:36;;;;;;;3.67;1.83;;;18.20;99.90;;;;;;5058504;28;25095;-73
2022/09/01 08:00:04;;;;;;;4.70;1.95;;;18.50;99.90;;;;;;5055242;28;25055;-73
2022/09/01 08:02:31;;;;;;;4.97;2.05;;;18.70;99.90;;;;;;5058210;28;25067;-74
2022/09/01 08:04:58;;;;;;;5.05;2.40;;;19.00;99.90;;;;;;5060179;28;25065;-74
2022/09/01 08:07:23;;;;;;;8.27;2.08;;;19.20;99.90;;;;;;5061704;28;25069;-73
2022/09/01 08:09:49;;;;;;;4.35;1.80;;;19.40;99.90;;;;;;5051140;28;25077;-74
2022/09/01 08:12:15;;;;;;;3.50;1.67;;;19.60;99.90;;;;;;5071775;28;25075;-73
2022/09/01 08:14:40;;;;;;;2.00;1.77;;;19.80;99.90;;;;;;5049539;28;25057;-73
2022/09/01 08:17:06;;;;;;;5.07;2.15;;;20.00;99.90;;;;;;5061110;28;25065;-72
2022/09/01 08:19:31;;;;;;;4.60;2.40;;;20.30;99.90;;;;;;5055457;28;25179;-72
2022/09/01 08:21:57;;;;;;;3.83;1.98;;;20.10;99.90;;;;;;5060404;28;25081;-73
2022/09/01 08:24:22;;;;;;;5.03;1.80;;;19.90;99.90;;;;;;5053984;28;25071;-71
2022/09/01 08:26:48;;;;;;;2.55;1.77;;;20.00;99.90;;;;;;5066520;28;25058;-73
2022/09/01 08:29:13;;;;;;;2.22;1.63;;;20.00;99.90;;;;;;5058767;28;25062;-72
2022/09/01 08:31:39;;;;;;;4.03;1.65;;;20.00;99.90;;;;;;5053734;28;25139;-71
2022/09/01 08:34:05;;;;;;;10.07;1.73;;;20.20;99.90;;;;;;5049292;28;25066;-74
2022/09/01 08:36:31;;;;;;;4.70;1.65;;;20.30;99.90;;;;;;5065030;28;25126;-73
2022/09/01 08:38:56;;;;;;;5.35;1.50;;;20.50;99.90;;;;;;5055802;28;25142;-73
2022/09/01 08:41:42;;;;;;;3.45;1.92;;;20.60;99.90;;;;;;5062591;28;25089;-74
2022/09/01 08:44:53;;;;;;;2.17;1.73;;;20.80;99.90;;;;;;5057796;28;25061;-72
2022/09/01 08:47:20;;;;;;;3.63;1.48;;;21.10;99.90;;;;;;5090301;28;25068;-75
2022/09/01 08:49:46;;;;;;;6.40;2.08;;;21.70;99.90;;;;;;5060599;28;25094;-73
2022/09/01 08:52:18;;;;;;;2.65;1.60;;;21.50;99.90;;;;;;5064924;28;25083;-74
2022/09/01 08:54:50;;;;;;;3.25;1.60;;;21.20;99.90;;;;;;5069013;28;25176;-75
2022/09/01 08:57:23;;;;;;;9.27;1.85;;;21.30;99.90;;;;;;5070559;28;25116;-73
2022/09/01 08:59:51;;;;;;;3.35;1.60;;;21.40;99.90;;;;;;5065805;28;25107;-76
2022/09/01 09:02:41;;;;;;;5.07;1.85;;;21.60;99.90;;;;;;5068539;28;25056;-71
2022/09/01 09:05:27;;;;;;;5.35;1.80;;;21.70;99.90;;;;;;5073149;28;25064;-73
2022/09/01 09:08:14;;;;;;;1.63;1.50;;;22.20;99.90;;;;;;5063215;28;25080;-76
2022/09/01 09:11:05;;;;;;;6.32;1.60;;;22.00;99.90;;;;;;5067276;28;25050;-74
2022/09/01 09:13:58;;;;;;;3.60;1.20;;;21.90;99.90;;;;;;5061760;28;25068;-73
2022/09/01 09:16:28;;;;;;;2.75;1.77;;;21.80;99.90;;;;;;5071153;28;25137;-73
2022/09/01 09:19:06;;;;;;;3.90;1.95;;;21.90;99.90;;;;;;5068385;28;25074;-75
2022/09/01 09:21:41;;;;;;;4.57;1.52;;;22.10;99.90;;;;;;5066132;28;25159;-72
2022/09/01 09:24:46;;;;;;;5.95;1.60;;;22.30;99.90;;;;;;5064451;28;25078;-75
2022/09/01 09:27:29;;;;;;;7.10;2.08;;;22.60;99.90;;;;;;5061540;28;25137;-72
2022/09/01 09:30:07;;;;;;;1.30;1.20;;;22.90;99.90;;;;;;5064549;28;25087;-71
2022/09/01 09:32:50;;;;;;;5.25;2.15;;;23.10;99.90;;;;;;5062987;28;25141;-71
2022/09/01 09:35:29;;;;;;;2.13;1.58;;;22.90;99.90;;;;;;5075103;28;25075;-72
2022/09/01 09:37:55;;;;;;;3.28;1.73;;;23.00;99.90;;;;;;5072287;28;25064;-73
2022/09/01 09:40:25;;;;;;;3.00;1.73;;;22.90;99.90;;;;;;5065971;28;25053;-71
2022/09/01 09:42:54;;;;;;;1.55;1.45;;;22.80;99.90;;;;;;5058688;28;25028;-74
2022/09/01 09:45:47;;;;;;;2.58;1.70;;;22.70;99.90;;;;;;5070063;28;25212;-75
2022/09/01 09:48:30;;;;;;;3.60;1.65;;;22.20;99.90;;;;;;5058249;28;25115;-74
2022/09/01 09:51:19;;;;;;;4.80;1.88;;;21.70;99.90;;;;;;5066172;28;25089;-75
2022/09/01 09:53:45;;;;;;;3.78;1.30;;;21.90;99.90;;;;;;5062240;28;25076;-74
2022/09/01 09:56:24;;;;;;;8.70;1.38;;;22.40;99.90;;;;;;5066222;28;25050;-75
2022/09/01 09:58:52;;;;;;;5.43;1.20;;;22.50;99.90;;;;;;5071818;28;25159;-73
2022/09/01 10:01:24;;;;;;;4.40;1.30;;;22.40;99.90;;;;;;5061107;28;25060;-75
2022/09/01 10:03:54;;;;;;;4.32;1.67;;;22.70;99.90;;;;;;5061974;28;25089;-73
2022/09/01 10:06:33;;;;;;;4.68;1.30;;;22.40;99.90;;;;;;5055923;28;25066;-74
2022/09/01 10:09:02;;;;;;;5.35;1.48;;;22.50;99.90;;;;;;5058251;28;25045;-74
2022/09/01 10:11:33;;;;;;;4.72;1.73;;;22.90;99.90;;;;;;5063013;28;25072;-74
2022/09/01 10:13:58;;;;;;;1.73;1.27;;;22.80;99.90;;;;;;5063882;28;25075;-72
2022/09/01 10:16:31;;;;;;;5.38;1.50;;;22.90;99.90;;;;;;5057167;28;25152;-72
2022/09/01 10:18:59;;;;;;;2.15;1.10;;;23.00;99.90;;;;;;5059251;28;25085;-72
2022/09/01 10:21:37;;;;;;;1.85;1.00;;;23.10;97.90;;;;;;5051298;28;25068;-74
2022/09/01 10:24:34;;;;;;;1.42;1.20;;;23.00;95.60;;;;;;5055752;28;25082;-70
2022/09/01 10:27:04;;;;;;;4.05;1.05;;;22.70;93.50;;;;;;5038900;28;25072;-72
2022/09/01 10:29:35;;;;;;;2.28;1.42;;;22.80;93.60;;;;;;5064022;28;25077;-72
2022/09/01 10:32:07;;;;;;;2.50;1.17;;;22.90;93.50;;;;;;5051506;28;25070;-72
2022/09/01 10:34:36;;;;;;;1.38;1.20;;;22.90;78.60;;;;;;5052400;28;25060;-74
2022/09/01 10:37:04;;;;;;;5.28;1.00;;;22.80;85.90;;;;;;5056258;28;25170;-73
2022/09/01 10:39:30;;;;;;;3.08;1.35;;;22.90;83.10;;;;;;5070223;28;25079;-74
2022/09/01 10:41:57;;;;;;;3.03;0.88;;;23.00;78.30;;;;;;5053498;28;25067;-71
2022/09/01 10:44:29;;;;;;;3.38;1.27;;;23.10;88.70;;;;;;5059391;28;25109;-70
2022/09/01 10:46:57;;;;;;;2.92;1.60;;;22.90;71.60;;;;;;5061492;28;25109;-71
2022/09/01 10:49:26;;;;;;;6.38;1.75;;;23.00;65.90;;;;;;5060627;28;25173;-73
2022/09/01 10:51:53;;;;;;;1.73;0.90;;;23.10;64.10;;;;;;5056232;28;25066;-72
2022/09/01 10:54:58;;;;;;;3.75;1.23;;;23.10;61.20;;;;;;5053005;28;25057;-73
2022/09/01 10:57:51;;;;;;;4.47;0.98;;;23.20;67.20;;;;;;5058882;28;25166;-73
2022/09/01 11:00:19;;;;;;;2.60;1.40;;;23.40;52.00;;;;;;5060049;28;25133;-74
2022/09/01 11:03:10;;;;;;;3.80;1.27;;;23.50;49.10;;;;;;5058536;28;25048;-76
2022/09/01 11:05:54;;;;;;;2.47;1.55;;;23.70;40.10;;;;;;5046611;28;25060;-73
2022/09/01 11:08:28;;;;;;;3.00;0.90;;;23.80;35.10;;;;;;5057876;28;25133;-72
2022/09/01 11:11:15;;;;;;;3.75;1.02;;;23.60;20.70;;;;;;5066237;28;25075;-74
2022/09/01 11:13:53;;;;;;;4.22;0.70;;;23.60;13.80;;;;;;5044104;28;25064;-73
2022/09/01 11:16:40;;;;;;;2.33;1.00;;;24.10;16.30;;;;;;5063816;28;25534;-73
2022/09/01 11:19:36;;;;;;;0.95;0.93;;;24.80;1.00;;;;;;5047226;28;25065;-72
2022/09/01 11:22:24;;;;;;;1.17;0.90;;;24.60;1.00;;;;;;5048397;28;25056;-75
2022/09/01 11:25:10;;;;;;;3.08;0.93;;;24.60;1.00;;;;;;5058208;28;25142;-71
2022/09/01 11:27:48;;;;;;;2.60;0.70;;;25.10;1.00;;;;;;5056120;28;25055;-74
2022/09/01 11:30:37;;;;;;;2.67;0.80;;;25.80;1.00;;;;;;5059369;28;25147;-74
2022/09/01 11:33:51;;;;;;;1.30;1.00;;;25.70;1.00;;;;;;5046425;28;25085;-72
2022/09/01 11:36:34;;;;;;;1.38;0.80;;;25.90;1.00;;;;;;5036391;28;25059;-75
2022/09/01 11:39:18;;;;;;;2.13;0.80;;;26.40;1.00;;;;;;5060858;28;25059;-73
2022/09/01 11:42:13;;;;;;;2.30;1.13;;;26.10;1.00;;;;;;5058822;28;25069;-74
2022/09/01 11:44:58;;;;;;;1.20;0.85;;;25.50;1.00;;;;;;5047826;28;25104;-73
2022/09/01 11:47:28;;;;;;;2.25;1.17;;;26.30;1.00;;;;;;5076874;28;25057;-74
2022/09/01 11:49:56;;;;;;;0.68;0.68;;;26.10;1.00;;;;;;5052500;28;25088;-75
2022/09/01 11:52:25;;;;;;;0.82;0.70;;;26.40;1.00;;;;;;5056692;28;25152;-75
2022/09/01 11:54:51;;;;;;;1.25;1.15;;;26.60;1.00;;;;;;5059855;28;25093;-73
2022/09/01 11:57:30;;;;;;;1.33;1.00;;;26.30;1.00;;;;;;5061443;28;25174;-72
2022/09/01 11:59:59;;;;;;;3.33;1.10;;;26.20;1.00;;;;;;5056116;28;25076;-74
2022/09/01 12:02:30;;;;;;;4.03;0.75;;;27.30;1.00;;;;;;5064592;28;25073;-73
2022/09/01 12:04:56;;;;;;;1.83;0.77;;;27.50;99.90;;;;;;5051393;28;25077;-72
2022/09/01 12:07:43;;;;;;;1.75;0.90;;;27.00;99.90;;;;;;5066912;28;25079;-74
2022/09/01 12:10:32;;;;;;;5.18;0.90;;;26.30;99.90;;;;;;5057123;28;25157;-73
2022/09/01 12:13:07;;;;;;;1.17;0.80;;;26.10;99.90;;;;;;5053809;28;25077;-75
2022/09/01 12:15:36;;;;;;;2.15;0.80;;;26.40;99.90;;;;;;5062379;28;25067;-74
2022/09/01 12:18:17;;;;;;;2.25;0.75;;;26.60;99.90;;;;;;5065002;28;25054;-74
2022/09/01 12:20:45;;;;;;;4.75;1.48;;;26.70;99.90;;;;;;5060995;28;25095;-73
2022/09/01 12:23:26;;;;;;;4.40;1.00;;;27.00;99.90;;;;;;5064188;28;24860;-74
2022/09/01 12:25:55;;;;;;;2.83;0.85;;;26.90;99.90;;;;;;5072470;28;25080;-75
2022/09/01 12:28:23;;;;;;;2.60;0.70;;;27.30;99.90;;;;;;5056320;28;25110;-75
2022/09/01 12:30:50;;;;;;;1.77;1.00;;;26.60;99.90;;;;;;5057503;28;25071;-71
2022/09/01 12:33:17;;;;;;;1.00;0.80;;;26.90;99.90;;;;;;5061748;28;25096;-72
2022/09/01 12:35:44;;;;;;;2.20;0.80;;;27.40;99.90;;;;;;5055889;28;25068;-73
2022/09/01 12:38:36;;;;;;;2.75;0.70;;;27.60;99.90;;;;;;5062282;28;25091;-73
2022/09/01 12:41:01;;;;;;;2.42;0.90;;;27.90;99.90;;;;;;5062886;28;25096;-73
2022/09/01 12:43:31;;;;;;;1.75;0.93;;;27.60;99.90;;;;;;5051072;28;25083;-74
2022/09/01 12:45:59;;;;;;;0.98;0.77;;;27.40;99.90;;;;;;5057620;28;25106;-73
2022/09/01 12:48:36;;;;;;;0.85;0.82;;;27.70;99.90;;;;;;5067829;28;25160;-73
2022/09/01 12:51:13;;;;;;;1.58;0.95;;;27.60;99.90;;;;;;5055236;28;25094;-74
2022/09/01 12:53:38;;;;;;;4.53;0.90;;;27.20;99.90;;;;;;5047874;28;25108;-75
2022/09/01 12:56:15;;;;;;;4.13;0.77;;;27.80;99.90;;;;;;5048884;28;25161;-74
2022/09/01 12:58:47;;;;;;;3.60;0.77;;;28.30;99.90;;;;;;5055477;28;25075;-74
2022/09/01 13:01:27;;;;;;;;;;;28.30;99.90;;;;;;5058100;28;25081;-75
2022/09/01 13:04:07;;;;;;;1.75;0.80;;;28.50;99.90;;;;;;5059649;28;24106;-75
2022/09/01 13:06:32;;;;;;;2.83;1.00;;;27.30;99.90;;;;;;5053149;28;25065;-74
2022/09/01 13:08:58;;;;;;;3.83;1.08;;;27.30;99.90;;;;;;5057410;28;25064;-77
2022/09/01 13:11:23;;;;;;;2.65;1.10;;;27.80;99.90;;;;;;5070622;28;25069;-74
2022/09/01 13:13:49;;;;;;;1.38;1.08;;;28.10;99.90;;;;;;5057444;28;25088;-75